»·PEaware :: SWA31 KSJC-KSAN

SWA31 :: KSJC-KSAN

FLIGHT INFORMATION

Flight Status: Arrived
Operator:
Southwest Airlines
More flights by this operator :: More flights under this callsign
Pilot: Steve F. (26981)
Aircraft: BOEING 737-800
(B738)
More flights by this aircraft type
Origin: KSJC Mineta San Jose Intl
United States
Destination: KSAN San Diego Intl-Lindbergh
United States
More flights between these airports :: More routes between these airports
Route: TECKY3 EBAYE AVE J1 LAX COMIX2
File this flight plan on PilotEdge
Remarks:
Altitude:
(Current/Filed)
37,000ft
Speed:
(Current/Filed)
430kts
Departed: 05-Jul-21 05:20 PM
Arrived: 05-Jul-21 06:28 PM
Distance/Time
Traveled:
362nm/1:07
Distance/Time
To Go:
Arrived

Flight Plot

Page will automatically refresh every two minutes.

Flight plan parsing failed; only flown route is shown


Map Options




Map Legend


Flown Route
Filed Route
Departure Airport
Arrival Airport
Navaid (VOR, NDB)
Fix

Horizontal Profiles

Position Reports

Time Latitude Longitude Heading Altitude Ground
Speed
05-Jul-21 17:00 37.370659 -121.931840 49 70ft 0kts
05-Jul-21 17:01 37.370659 -121.931839 49 69ft 0kts
05-Jul-21 17:02 37.370660 -121.931838 49 70ft 0kts
05-Jul-21 17:03 37.370661 -121.931837 49 70ft 0kts
05-Jul-21 17:04 37.370661 -121.931836 49 70ft 0kts
05-Jul-21 17:05 37.370662 -121.931835 49 70ft 0kts
05-Jul-21 17:06 37.370663 -121.931834 49 70ft 0kts
05-Jul-21 17:07 37.370663 -121.931833 49 70ft 0kts
05-Jul-21 17:08 37.370664 -121.931832 49 70ft 0kts
05-Jul-21 17:09 37.370665 -121.931831 49 70ft 0kts
05-Jul-21 17:10 37.370330 -121.932363 76 70ft 2kts
05-Jul-21 17:11 37.370399 -121.932554 153 70ft 0kts
05-Jul-21 17:12 37.370399 -121.932554 153 70ft 0kts
05-Jul-21 17:13 37.369888 -121.931996 135 70ft 13kts
05-Jul-21 17:14 37.365691 -121.927382 138 70ft 23kts
05-Jul-21 17:15 37.360678 -121.921893 138 70ft 26kts
05-Jul-21 17:16 37.355401 -121.916101 138 70ft 26kts
05-Jul-21 17:17 37.352831 -121.914798 229 70ft 0kts
05-Jul-21 17:18 37.353365 -121.916454 318 70ft 19kts
05-Jul-21 17:19 37.380875 -121.946468 319 1328ft 191kts
05-Jul-21 17:20 37.433311 -121.964164 42 3813ft 215kts
05-Jul-21 17:21 37.420964 -121.899825 135 5895ft 233kts
05-Jul-21 17:22 37.376844 -121.846709 136 7413ft 278kts
05-Jul-21 17:23 37.376844 -121.846709 136 7413ft 278kts
05-Jul-21 17:24 37.334379 -121.795050 137 9546ft 286kts
05-Jul-21 17:25 37.272275 -121.723464 139 11473ft 334kts
05-Jul-21 17:26 37.241895 -121.689131 139 11894ft 363kts
05-Jul-21 17:27 37.241895 -121.689131 139 11894ft 363kts
05-Jul-21 17:28 37.241895 -121.689131 139 11894ft 363kts
05-Jul-21 17:29 37.188458 -121.628830 139 13459ft 378kts
05-Jul-21 17:30 37.108677 -121.538966 137 15812ft 392kts
05-Jul-21 17:31 37.025387 -121.446853 139 17894ft 406kts
05-Jul-21 17:32 36.938099 -121.354576 139 19034ft 412kts
05-Jul-21 17:33 36.850373 -121.261452 139 19453ft 419kts
05-Jul-21 17:34 36.761213 -121.166337 140 21275ft 427kts
05-Jul-21 17:35 36.687099 -121.088186 140 22530ft 436kts
05-Jul-21 17:36 36.593122 -120.989593 142 23980ft 446kts
05-Jul-21 17:37 36.496172 -120.891441 142 25241ft 454kts
05-Jul-21 17:38 36.397321 -120.791513 143 26297ft 462kts
05-Jul-21 17:39 36.296657 -120.689506 143 27192ft 471kts
05-Jul-21 17:40 36.193809 -120.585723 144 27982ft 481kts
05-Jul-21 17:41 36.089515 -120.480737 144 28949ft 485kts
05-Jul-21 17:42 35.984695 -120.375963 145 30166ft 482kts
05-Jul-21 17:43 35.880632 -120.272394 144 31495ft 478kts
05-Jul-21 17:44 35.786685 -120.156057 137 32870ft 477kts
05-Jul-21 17:45 35.695016 -120.039446 138 34204ft 472kts
05-Jul-21 17:46 35.596341 -119.935118 146 35321ft 467kts
05-Jul-21 17:47 35.491071 -119.843642 146 36593ft 460kts
05-Jul-21 17:48 35.386617 -119.753532 148 36945ft 456kts
05-Jul-21 17:50 35.283598 -119.665203 148 36947ft 452kts
05-Jul-21 17:51 35.180379 -119.576953 148 36998ft 452kts
05-Jul-21 17:52 35.077523 -119.489358 148 37028ft 452kts
05-Jul-21 17:53 34.974038 -119.401438 148 37057ft 452kts
05-Jul-21 17:54 34.870591 -119.313006 148 37112ft 458kts
05-Jul-21 17:55 34.765922 -119.224589 148 37125ft 458kts
05-Jul-21 17:56 34.661046 -119.136290 148 37104ft 459kts
05-Jul-21 17:57 34.555832 -119.047655 148 37061ft 465kts
05-Jul-21 17:58 34.449515 -118.958744 148 37017ft 466kts
05-Jul-21 17:59 34.343732 -118.868389 143 37009ft 461kts
05-Jul-21 18:00 34.247557 -118.765386 141 36996ft 466kts
05-Jul-21 18:01 34.149334 -118.660538 140 35396ft 470kts
05-Jul-21 18:02 34.051341 -118.556606 141 32898ft 471kts
05-Jul-21 18:03 33.951958 -118.451863 140 30404ft 479kts
05-Jul-21 18:04 33.858585 -118.335462 134 27902ft 486kts
05-Jul-21 18:05 33.765819 -118.215431 134 25399ft 490kts
05-Jul-21 18:06 33.676241 -118.097352 134 22904ft 470kts
05-Jul-21 18:07 33.589381 -117.983857 134 20474ft 453kts
05-Jul-21 18:08 33.502850 -117.877344 138 18271ft 438kts
05-Jul-21 18:09 33.416440 -117.778604 140 16267ft 415kts
05-Jul-21 18:10 33.335107 -117.692827 141 15598ft 367kts
05-Jul-21 18:11 33.259742 -117.612640 140 15197ft 364kts
05-Jul-21 18:11 33.197701 -117.547129 140 14816ft 342kts
05-Jul-21 18:13 33.117861 -117.466335 147 13951ft 312kts
05-Jul-21 18:14 33.047601 -117.408938 147 12312ft 299kts
05-Jul-21 18:14 32.992990 -117.363053 147 10941ft 279kts
05-Jul-21 18:15 32.929851 -117.310216 148 9346ft 278kts
05-Jul-21 18:17 32.856571 -117.249210 148 7940ft 273kts
05-Jul-21 18:18 32.805207 -117.186313 110 6999ft 269kts
05-Jul-21 18:18 32.790409 -117.116629 104 6429ft 253kts
05-Jul-21 18:19 32.772467 -117.036560 105 5724ft 240kts
05-Jul-21 18:21 32.742324 -116.960196 148 4732ft 207kts
05-Jul-21 18:21 32.700031 -116.964366 221 3946ft 185kts
05-Jul-21 18:22 32.690271 -117.016833 286 3065ft 157kts
05-Jul-21 18:23 32.703553 -117.065021 290 2303ft 154kts
05-Jul-21 18:24 32.714989 -117.112473 290 1421ft 143kts
05-Jul-21 18:25 32.725722 -117.157420 287 525ft 145kts
05-Jul-21 18:26 32.734285 -117.192607 285 25ft 73kts
05-Jul-21 18:27 32.734610 -117.198116 104 25ft 12kts
05-Jul-21 18:28 32.733119 -117.195709 227 25ft 2kts
05-Jul-21 18:29 32.733078 -117.195762 227 25ft 0kts

Navigation Log

Ident Type
Flight plan parsing failed, navigation log unavailable